North Queensferry, United Kingdom

11:41 PM BST on September 17, 2014 (GMT +0100)
IWESTLOT5 | Change Station
CLOSE
Current Station
Personal Weather Station
Location: West Calder, WEST LOTHIAN
Elevation: 505 ft
Nearby Weather Stations

Elev 505 ft 55.86 °N, 3.56 °W | Updated 9 minutes ago

Fog
Fog
56.8 °F
Feels Like 56.8 °F
N
2.2
Wind Variable Wind from NW
Gusts 3.1 mph

Today
High -- | Low -- °F
--% Chance of Precip.
Yesterday
High -- | Low -- °F
Precip. -- in
6:48 AM 7:26 PM
Waning Crescent, 32% visible
Pressure 29.98 in
Visibility -9999.0 miles
Clouds Overcast 200 ft
Dew Point 57 °F
Humidity 99%
Rainfall 0.00 in
Snow Depth Not available.
UV 0 out of 12
Pollen Not available.
Air Quality Not available.
Flu Activity Not available.
METAR EGQL 172233Z 05008KT 0750 FG OVC002 14/14 Q1015 RED

More Conditions Fewer Conditions

Pressure 29.98 in
Visibility -9999.0 miles
Clouds Overcast 200 ft
Dew Point 57 °F
Humidity 99%
Rainfall 0.00 in
Snow Depth Not available.
UV 0 out of 12
Pollen Not available.
Air Quality Not available.
Flu Activity Not available.
METAR EGQL 172233Z 05008KT 0750 FG OVC002 14/14 Q1015 RED

More Conditions Fewer Conditions

10-Day Weather Forecast

Almanac

Astronomy

Sep. 17, 2014 Rise Set
Actual Time 6:48 AM BST 7:26 PM BST
Civil Twilight 6:11 AM BST 8:03 PM BST
Nautical Twilight 5:25 AM BST 8:48 PM BST
Astronomical Twilight 4:37 AM BST 9:37 PM BST
Moon No Moon Rise 4:10 PM BST
Length of Visible Light 13h 52m
Length of Day
12h 37m
Tomorrow will be 4m 36s shorter.
Waning Crescent, 32% of the Moon is Illuminated
Today
Waning Crescent
Sep 24
New
Oct 1
First Quarter
Oct 8
Full
Oct 15
Last Quarter

Today's Extremes

Country Highs Country Lows

Community

WunderPhotos

Upload Photos

1,754,185 photos uploaded!

Nearby

Snow Depth

Not available.

Earthquake Activity

City Distance Mag. Time & Date
No recent earthquake activity has been reported nearby.
Minimum magnitude displayed is 2.5.

Coastal Water Temperatures

Place Temperature
No Stations Reporting

Nearby Weather Stations